Time;durP1;ratioP1;P1;durP2;ratioP2;P2;SDS_P1;SDS_P2;PMS_P1;PMS_P2;Temp;Humidity;BMP_temperature;BMP_pressure;BME280_temperature;BME280_humidity;BME280_pressure;Samples;Min_cycle;Max_cycle;Signal;HPM_P1;HPM_P2
2024/01/01 00:02:14;;;;;;;108.30;62.83;;;;;;;-146.82;100.00;71671.09;5052150;28;20453;-81
2024/01/01 00:04:39;;;;;;;109.22;63.10;;;;;;;-146.82;100.00;71671.09;5053026;28;20017;-79
2024/01/01 00:07:06;;;;;;;108.82;61.78;;;;;;;-146.82;100.00;71671.09;5051936;28;20116;-80
2024/01/01 00:09:32;;;;;;;115.03;63.80;;;;;;;-146.82;100.00;71671.09;5053334;28;20025;-80
2024/01/01 00:12:00;;;;;;;111.65;64.55;;;;;;;-146.82;100.00;71671.09;5051993;28;20476;-80
2024/01/01 00:14:26;;;;;;;108.40;62.80;;;;;;;-146.82;100.00;71671.09;5052785;28;20044;-80
2024/01/01 00:16:52;;;;;;;99.45;58.47;;;;;;;-146.82;100.00;71671.09;5051924;28;20547;-80
2024/01/01 00:19:19;;;;;;;103.75;57.05;;;;;;;-146.82;100.00;71671.09;5052321;28;20028;-81
2024/01/01 00:21:46;;;;;;;105.18;58.63;;;;;;;-146.82;100.00;71671.09;5052262;28;20206;-81
2024/01/01 00:24:13;;;;;;;105.50;59.67;;;;;;;-146.82;100.00;71671.09;5053279;28;20462;-81
2024/01/01 00:26:39;;;;;;;102.38;58.38;;;;;;;-146.82;100.00;71671.09;5052793;28;20494;-80
2024/01/01 00:29:05;;;;;;;100.28;59.28;;;;;;;-146.82;100.00;71671.09;5052963;28;20032;-81
2024/01/01 00:31:39;;;;;;;127.55;74.65;;;;;;;-146.82;100.00;71671.09;5054015;28;20028;-81
2024/01/01 00:34:05;;;;;;;150.02;83.10;;;;;;;-146.82;100.00;71671.09;5056602;28;20035;-78
2024/01/01 00:36:31;;;;;;;143.35;78.47;;;;;;;-146.82;100.00;71671.09;5056734;28;20064;-79
2024/01/01 00:38:57;;;;;;;324.65;172.88;;;;;;;-146.82;100.00;71671.09;5055577;28;20493;-80
2024/01/01 00:41:23;;;;;;;286.45;148.40;;;;;;;-146.82;100.00;71671.09;5056763;28;20029;-79
2024/01/01 00:43:49;;;;;;;134.13;70.45;;;;;;;-146.82;100.00;71671.09;5055404;28;20036;-80
2024/01/01 00:46:16;;;;;;;114.03;62.70;;;;;;;-146.82;100.00;71671.09;5055233;28;20478;-80
2024/01/01 00:48:43;;;;;;;147.23;78.25;;;;;;;-146.82;100.00;71671.09;5038551;28;20363;-79
2024/01/01 00:51:09;;;;;;;107.07;56.53;;;;;;;-146.82;100.00;71671.09;5056624;28;20099;-79
2024/01/01 00:53:35;;;;;;;84.90;47.38;;;;;;;-146.82;100.00;71671.09;5038381;28;20124;-81
2024/01/01 00:56:02;;;;;;;64.03;38.10;;;;;;;-146.82;100.00;71671.09;5056582;28;20032;-81
2024/01/01 00:58:29;;;;;;;63.00;35.30;;;;;;;-146.82;100.00;71671.09;5038614;28;20029;-80
2024/01/01 01:00:58;;;;;;;62.65;33.83;;;;;;;-146.82;100.00;71671.09;5055120;28;20048;-87
2024/01/01 01:03:25;;;;;;;56.58;33.15;;;;;;;-146.82;100.00;71671.09;5056707;28;20100;-75
2024/01/01 01:05:50;;;;;;;51.97;31.02;;;;;;;-146.82;100.00;71671.09;5055394;28;20031;-79
2024/01/01 01:08:15;;;;;;;48.95;30.10;;;;;;;-146.82;100.00;71671.09;5054997;28;20024;-77
2024/01/01 01:10:42;;;;;;;44.28;26.75;;;;;;;-146.82;100.00;71671.09;5056052;28;20108;-78
2024/01/01 01:13:07;;;;;;;41.92;27.48;;;;;;;-146.82;100.00;71671.09;5050885;28;20017;-75
2024/01/01 01:15:35;;;;;;;46.33;26.30;;;;;;;-146.82;100.00;71671.09;5037523;28;20532;-76
2024/01/01 01:18:04;;;;;;;44.58;25.85;;;;;;;-146.82;100.00;71671.09;5045325;28;20025;-76
2024/01/01 01:20:29;;;;;;;42.70;24.77;;;;;;;-146.82;100.00;71671.09;5043003;28;20021;-77
2024/01/01 01:22:56;;;;;;;43.45;26.80;;;;;;;-146.82;100.00;71671.09;5055858;28;20093;-76
2024/01/01 01:25:25;;;;;;;40.75;23.83;;;;;;;-146.82;100.00;71671.09;5038830;28;20025;-76
2024/01/01 01:27:53;;;;;;;44.08;26.05;;;;;;;-146.82;100.00;71671.09;5047591;28;20020;-75
2024/01/01 01:30:19;;;;;;;42.40;24.35;;;;;;;-146.82;100.00;71671.09;5047183;28;20017;-76
2024/01/01 01:32:46;;;;;;;45.22;29.27;;;;;;;-146.82;100.00;71671.09;5047162;28;20029;-79
2024/01/01 01:35:12;;;;;;;43.85;27.77;;;;;;;-146.82;100.00;71671.09;5054745;28;20446;-77
2024/01/01 01:37:38;;;;;;;40.90;22.73;;;;;;;-146.82;100.00;71671.09;5054680;28;20104;-77
2024/01/01 01:40:05;;;;;;;33.85;19.60;;;;;;;-146.82;100.00;71671.09;5054458;28;20041;-76
2024/01/01 01:42:31;;;;;;;33.22;19.70;;;;;;;-146.82;100.00;71671.09;5054409;28;20076;-76
2024/01/01 01:44:57;;;;;;;32.55;18.02;;;;;;;-146.82;100.00;71671.09;5055791;28;20411;-77
2024/01/01 01:47:23;;;;;;;29.83;17.25;;;;;;;-146.82;100.00;71671.09;5055594;28;20029;-76
2024/01/01 01:49:49;;;;;;;27.67;16.58;;;;;;;-146.82;100.00;71671.09;5052915;28;20045;-77
2024/01/01 01:52:15;;;;;;;31.83;17.17;;;;;;;-146.82;100.00;71671.09;5054234;28;20056;-78
2024/01/01 01:55:02;;;;;;;28.90;15.90;;;;;;;-146.82;100.00;71671.09;5054084;28;20117;-75
2024/01/01 01:57:27;;;;;;;24.05;14.82;;;;;;;-146.82;100.00;71671.09;5055044;28;20379;-77
2024/01/01 01:59:53;;;;;;;21.80;14.18;;;;;;;-146.82;100.00;71671.09;5055185;28;20485;-76
2024/01/01 02:02:22;;;;;;;22.60;14.02;;;;;;;-146.82;100.00;71671.09;5037199;28;20474;-77
2024/01/01 02:04:50;;;;;;;25.15;14.13;;;;;;;-146.82;100.00;71671.09;5037400;28;20026;-76
2024/01/01 02:07:17;;;;;;;20.25;12.65;;;;;;;-146.82;100.00;71671.09;5037139;28;20065;-77
2024/01/01 02:09:43;;;;;;;23.13;12.38;;;;;;;-146.82;100.00;71671.09;5053623;28;20067;-77
2024/01/01 02:12:11;;;;;;;17.65;11.25;;;;;;;-146.82;100.00;71671.09;5055180;28;20074;-77
2024/01/01 02:14:46;;;;;;;18.90;11.15;;;;;;;-146.82;100.00;71671.09;5053681;28;20033;-76
2024/01/01 02:17:17;;;;;;;18.73;11.98;;;;;;;-146.82;100.00;71671.09;5053703;28;20040;-74
2024/01/01 02:19:56;;;;;;;17.73;11.60;;;;;;;-146.82;100.00;71671.09;5052366;28;20082;-76
2024/01/01 02:22:21;;;;;;;22.17;12.57;;;;;;;-146.82;100.00;71671.09;5053574;28;20052;-77
2024/01/01 02:25:13;;;;;;;21.23;13.82;;;;;;;-146.82;100.00;71671.09;5052357;28;20171;-76
2024/01/01 02:27:39;;;;;;;24.63;15.00;;;;;;;-146.82;100.00;71671.09;5053274;28;20048;-77
2024/01/01 02:30:10;;;;;;;23.00;14.13;;;;;;;-146.82;100.00;71671.09;5053913;28;20421;-78
2024/01/01 02:32:38;;;;;;;31.33;16.88;;;;;;;-146.82;100.00;71671.09;5054205;28;20449;-77
2024/01/01 02:35:08;;;;;;;20.25;11.70;;;;;;;-146.82;100.00;71671.09;5019228;28;20044;-77
2024/01/01 02:37:34;;;;;;;16.60;11.38;;;;;;;-146.82;100.00;71671.09;5052297;28;20031;-76
2024/01/01 02:40:01;;;;;;;20.63;11.55;;;;;;;-146.82;100.00;71671.09;5052167;28;20390;-78
2024/01/01 02:42:39;;;;;;;19.27;12.27;;;;;;;-146.82;100.00;71671.09;5051777;28;20037;-76
2024/01/01 02:45:11;;;;;;;17.48;11.65;;;;;;;-146.82;100.00;71671.09;5051869;28;20377;-78
2024/01/01 02:47:37;;;;;;;18.08;12.15;;;;;;;-146.82;100.00;71671.09;5052172;28;20503;-78
2024/01/01 02:50:09;;;;;;;19.02;11.95;;;;;;;-146.82;100.00;71671.09;5053541;28;20382;-76
2024/01/01 02:52:34;;;;;;;23.45;13.05;;;;;;;-146.82;100.00;71671.09;5052927;28;20035;-78
2024/01/01 02:55:02;;;;;;;22.45;13.25;;;;;;;-146.82;100.00;71671.09;5052695;28;20025;-77
2024/01/01 02:57:27;;;;;;;20.48;11.82;;;;;;;-146.82;100.00;71671.09;5051354;28;20116;-76
2024/01/01 02:59:55;;;;;;;24.00;12.57;;;;;;;-146.82;100.00;71671.09;5052815;28;20489;-77
2024/01/01 03:02:20;;;;;;;20.92;13.13;;;;;;;-146.82;100.00;71671.09;5051424;28;20025;-76
2024/01/01 03:04:46;;;;;;;21.55;14.00;;;;;;;-146.82;100.00;71671.09;5051662;28;20060;-75
2024/01/01 03:07:14;;;;;;;20.48;13.23;;;;;;;-146.82;100.00;71671.09;5052590;28;20058;-77
2024/01/01 03:09:43;;;;;;;23.63;13.65;;;;;;;-146.82;100.00;71671.09;5052616;28;20147;-76
2024/01/01 03:12:16;;;;;;;20.20;13.15;;;;;;;-146.82;100.00;71671.09;5052762;28;20025;-76
2024/01/01 03:14:44;;;;;;;24.40;13.88;;;;;;;-146.82;100.00;71671.09;5052252;28;20037;-75
2024/01/01 03:17:10;;;;;;;22.65;13.45;;;;;;;-146.82;100.00;71671.09;5051523;28;20025;-77
2024/01/01 03:19:35;;;;;;;26.92;13.90;;;;;;;-146.82;100.00;71671.09;5035325;28;20083;-77
2024/01/01 03:22:02;;;;;;;21.38;12.35;;;;;;;-146.82;100.00;71671.09;5053165;28;20045;-77
2024/01/01 03:24:31;;;;;;;19.30;11.98;;;;;;;-146.82;100.00;71671.09;5053492;28;20027;-77
2024/01/01 03:26:58;;;;;;;27.38;14.57;;;;;;;-146.82;100.00;71671.09;5053502;28;20044;-77
2024/01/01 03:29:25;;;;;;;28.00;14.70;;;;;;;-146.82;100.00;71671.09;5053901;28;20035;-76
2024/01/01 03:31:51;;;;;;;25.15;13.95;;;;;;;-146.82;100.00;71671.09;5052245;28;20017;-76
2024/01/01 03:34:18;;;;;;;26.45;12.88;;;;;;;-146.82;100.00;71671.09;5053471;28;20028;-77
2024/01/01 03:36:45;;;;;;;19.98;11.38;;;;;;;-146.82;100.00;71671.09;5052909;28;20033;-77
2024/01/01 03:39:10;;;;;;;18.65;10.65;;;;;;;-146.82;100.00;71671.09;5035714;28;20103;-77
2024/01/01 03:41:36;;;;;;;15.95;10.02;;;;;;;-146.82;100.00;71671.09;5052131;28;20413;-78
2024/01/01 03:44:02;;;;;;;18.00;9.98;;;;;;;-146.82;100.00;71671.09;5052285;28;20458;-78
2024/01/01 03:46:28;;;;;;;19.80;10.45;;;;;;;-146.82;100.00;71671.09;5053068;28;20025;-77
2024/01/01 03:48:54;;;;;;;17.40;9.50;;;;;;;-146.82;100.00;71671.09;5051848;28;20043;-77
2024/01/01 03:51:20;;;;;;;17.98;9.60;;;;;;;-146.82;100.00;71671.09;5052113;28;20108;-78
2024/01/01 03:53:46;;;;;;;12.50;9.18;;;;;;;-146.82;100.00;71671.09;5051990;28;20032;-78
2024/01/01 03:56:20;;;;;;;15.25;9.52;;;;;;;-146.82;100.00;71671.09;5052219;28;20029;-77
2024/01/01 03:58:46;;;;;;;17.23;9.05;;;;;;;-146.82;100.00;71671.09;5052242;28;20060;-76
2024/01/01 04:01:20;;;;;;;15.02;8.38;;;;;;;-146.82;100.00;71671.09;5052193;28;20390;-76
2024/01/01 04:04:00;;;;;;;16.98;8.57;;;;;;;-146.82;100.00;71671.09;5034394;28;20075;-76
2024/01/01 04:06:26;;;;;;;18.33;9.32;;;;;;;-146.82;100.00;71671.09;5052828;28;20025;-76
2024/01/01 04:08:54;;;;;;;15.50;9.05;;;;;;;-146.82;100.00;71671.09;5055141;28;20021;-77
2024/01/01 04:11:20;;;;;;;15.15;8.88;;;;;;;-146.82;100.00;71671.09;5057006;28;20020;-76
2024/01/01 04:13:51;;;;;;;16.40;8.80;;;;;;;-146.82;100.00;71671.09;5038906;28;20028;-77
2024/01/01 04:16:19;;;;;;;17.83;10.30;;;;;;;-146.82;100.00;71671.09;5056547;28;20048;-77
2024/01/01 04:18:45;;;;;;;21.92;12.75;;;;;;;-146.82;100.00;71671.09;5056433;28;20062;-77
2024/01/01 04:21:12;;;;;;;21.10;11.77;;;;;;;-146.82;100.00;71671.09;5055291;28;20060;-77
2024/01/01 04:23:37;;;;;;;22.77;12.10;;;;;;;-146.82;100.00;71671.09;5057603;28;20044;-79
2024/01/01 04:26:04;;;;;;;19.33;12.35;;;;;;;-146.82;100.00;71671.09;5039272;28;20403;-79
2024/01/01 04:28:30;;;;;;;21.45;13.32;;;;;;;-146.82;100.00;71671.09;5057373;28;20429;-77
2024/01/01 04:30:57;;;;;;;19.02;11.07;;;;;;;-146.82;100.00;71671.09;5057298;28;20148;-76
2024/01/01 04:33:24;;;;;;;20.35;12.90;;;;;;;-146.82;100.00;71671.09;5057330;28;20025;-77
2024/01/01 04:35:49;;;;;;;20.27;12.48;;;;;;;-146.82;100.00;71671.09;5057796;28;20462;-77
2024/01/01 04:38:15;;;;;;;21.52;13.38;;;;;;;-146.82;100.00;71671.09;5056367;28;20028;-77
2024/01/01 04:40:43;;;;;;;19.70;12.50;;;;;;;-146.82;100.00;71671.09;5057728;28;20477;-78
2024/01/01 04:43:08;;;;;;;21.63;11.52;;;;;;;-146.82;100.00;71671.09;5057703;28;20024;-77
2024/01/01 04:45:37;;;;;;;21.20;13.38;;;;;;;-146.82;100.00;71671.09;5057107;28;20033;-76
2024/01/01 04:48:03;;;;;;;20.75;12.40;;;;;;;-146.82;100.00;71671.09;5057305;28;20052;-77
2024/01/01 04:50:33;;;;;;;18.95;10.68;;;;;;;-146.82;100.00;71671.09;5057054;28;20029;-77
2024/01/01 04:52:59;;;;;;;21.88;11.55;;;;;;;-146.82;100.00;71671.09;5040722;28;22349;-77
2024/01/01 04:55:25;;;;;;;16.40;9.85;;;;;;;-146.82;100.00;71671.09;5056265;28;20057;-79
2024/01/01 04:57:52;;;;;;;18.85;10.43;;;;;;;-146.82;100.00;71671.09;5055831;28;20040;-77
2024/01/01 05:00:17;;;;;;;17.63;11.23;;;;;;;-146.82;100.00;71671.09;5056856;28;20032;-76
2024/01/01 05:02:43;;;;;;;24.35;12.77;;;;;;;-146.82;100.00;71671.09;5057266;28;20025;-78
2024/01/01 05:05:10;;;;;;;18.90;10.88;;;;;;;-146.82;100.00;71671.09;5057228;28;20429;-76
2024/01/01 05:07:37;;;;;;;14.98;9.75;;;;;;;-146.82;100.00;71671.09;5038908;28;20436;-76
2024/01/01 05:10:11;;;;;;;14.55;9.02;;;;;;;-146.82;100.00;71671.09;5055866;28;20132;-76
2024/01/01 05:12:38;;;;;;;13.95;8.63;;;;;;;-146.82;100.00;71671.09;5056971;28;20033;-77
2024/01/01 05:15:06;;;;;;;14.50;9.10;;;;;;;-146.82;100.00;71671.09;5056514;28;20082;-77
2024/01/01 05:17:33;;;;;;;13.80;8.43;;;;;;;-146.82;100.00;71671.09;5056592;28;20492;-76
2024/01/01 05:20:00;;;;;;;13.95;8.50;;;;;;;-146.82;100.00;71671.09;5057912;28;20041;-77
2024/01/01 05:22:26;;;;;;;15.77;8.20;;;;;;;-146.82;100.00;71671.09;5057218;28;20597;-76
2024/01/01 05:24:52;;;;;;;17.80;8.55;;;;;;;-146.82;100.00;71671.09;5057078;28;20025;-77
2024/01/01 05:27:18;;;;;;;14.52;8.63;;;;;;;-146.82;100.00;71671.09;5055244;28;20458;-78
2024/01/01 05:29:45;;;;;;;12.63;7.72;;;;;;;-146.82;100.00;71671.09;5057034;28;20032;-76
2024/01/01 05:32:12;;;;;;;16.70;8.80;;;;;;;-146.82;100.00;71671.09;5056688;28;20049;-77
2024/01/01 05:34:37;;;;;;;13.13;8.18;;;;;;;-146.82;100.00;71671.09;5058150;28;20041;-75
2024/01/01 05:37:04;;;;;;;11.02;7.65;;;;;;;-146.82;100.00;71671.09;5055613;28;20037;-77
2024/01/01 05:39:31;;;;;;;16.00;8.88;;;;;;;-146.82;100.00;71671.09;5056329;28;20043;-76
2024/01/01 05:41:57;;;;;;;14.85;9.00;;;;;;;-146.82;100.00;71671.09;5021772;28;20087;-76
2024/01/01 05:44:24;;;;;;;15.43;8.93;;;;;;;-146.82;100.00;71671.09;5056250;28;20033;-76
2024/01/01 05:46:52;;;;;;;14.13;8.35;;;;;;;-146.82;100.00;71671.09;5055644;28;20455;-77
2024/01/01 05:49:18;;;;;;;14.07;8.02;;;;;;;-146.82;100.00;71671.09;5053688;28;20037;-77
2024/01/01 05:51:45;;;;;;;13.23;8.73;;;;;;;-146.82;100.00;71671.09;5055816;28;20029;-77
2024/01/01 05:54:11;;;;;;;13.93;8.90;;;;;;;-146.82;100.00;71671.09;5055987;28;20037;-77
2024/01/01 05:56:37;;;;;;;15.55;9.25;;;;;;;-146.82;100.00;71671.09;5055321;28;20115;-77
2024/01/01 05:59:05;;;;;;;17.83;10.10;;;;;;;-146.82;100.00;71671.09;5053958;28;20041;-77
2024/01/01 06:01:31;;;;;;;16.67;9.10;;;;;;;-146.82;100.00;71671.09;5054080;28;20116;-76
2024/01/01 06:03:56;;;;;;;15.70;9.05;;;;;;;-146.82;100.00;71671.09;5055487;28;20057;-77
2024/01/01 06:06:26;;;;;;;19.27;10.50;;;;;;;-146.82;100.00;71671.09;5055641;28;20033;-76
2024/01/01 06:08:54;;;;;;;20.42;10.18;;;;;;;-146.82;100.00;71671.09;5054414;28;20041;-76
2024/01/01 06:11:20;;;;;;;15.57;9.50;;;;;;;-146.82;100.00;71671.09;5055522;28;20101;-77
2024/01/01 06:13:47;;;;;;;16.33;10.10;;;;;;;-146.82;100.00;71671.09;5055397;28;20509;-77
2024/01/01 06:16:14;;;;;;;17.95;10.43;;;;;;;-146.82;100.00;71671.09;5055779;28;20477;-77
2024/01/01 06:18:40;;;;;;;20.13;11.07;;;;;;;-146.82;100.00;71671.09;5055255;28;20027;-77
2024/01/01 06:21:06;;;;;;;14.90;9.93;;;;;;;-146.82;100.00;71671.09;5055083;28;20028;-76
2024/01/01 06:23:33;;;;;;;16.80;11.05;;;;;;;-146.82;100.00;71671.09;5054976;28;20021;-76
2024/01/01 06:26:01;;;;;;;20.05;11.75;;;;;;;-146.82;100.00;71671.09;5054443;28;20064;-77
2024/01/01 06:28:26;;;;;;;16.13;10.68;;;;;;;-146.82;100.00;71671.09;5036238;28;20398;-76
2024/01/01 06:30:54;;;;;;;19.63;11.50;;;;;;;-146.82;100.00;71671.09;5054670;28;20025;-76
2024/01/01 06:33:19;;;;;;;20.85;11.98;;;;;;;-146.82;100.00;71671.09;5054607;28;20538;-76
2024/01/01 06:35:45;;;;;;;19.73;11.65;;;;;;;-146.82;100.00;71671.09;5054719;28;20048;-76
2024/01/01 06:38:11;;;;;;;18.75;12.07;;;;;;;-146.82;100.00;71671.09;5054584;28;20020;-77
2024/01/01 06:40:38;;;;;;;18.50;12.02;;;;;;;-146.82;100.00;71671.09;5054289;28;20021;-76
2024/01/01 06:43:06;;;;;;;22.13;12.68;;;;;;;-146.82;100.00;71671.09;5053190;28;20386;-77
2024/01/01 06:45:32;;;;;;;19.20;12.43;;;;;;;-146.82;100.00;71671.09;5054583;28;20443;-77
2024/01/01 06:47:58;;;;;;;26.38;11.68;;;;;;;-146.82;100.00;71671.09;5053172;28;20031;-77
2024/01/01 06:50:26;;;;;;;19.65;11.45;;;;;;;-146.82;100.00;71671.09;5054126;28;20040;-77
2024/01/01 06:52:51;;;;;;;21.25;11.70;;;;;;;-146.82;100.00;71671.09;5052969;28;20017;-75
2024/01/01 06:55:18;;;;;;;17.10;11.10;;;;;;;-146.82;100.00;71671.09;5053895;28;20123;-75
2024/01/01 06:57:48;;;;;;;19.95;11.75;;;;;;;-146.82;100.00;71671.09;5054434;28;20075;-75
2024/01/01 07:00:15;;;;;;;20.92;11.85;;;;;;;-146.82;100.00;71671.09;5036209;28;20092;-76
2024/01/01 07:02:43;;;;;;;21.65;11.30;;;;;;;-146.82;100.00;71671.09;5052595;28;20029;-76
2024/01/01 07:05:09;;;;;;;19.63;11.05;;;;;;;-146.82;100.00;71671.09;5054065;28;20021;-76
2024/01/01 07:07:37;;;;;;;19.17;12.30;;;;;;;-146.82;100.00;71671.09;5052713;28;20486;-75
2024/01/01 07:10:03;;;;;;;23.30;12.13;;;;;;;-146.82;100.00;71671.09;5054322;28;20029;-76
2024/01/01 07:12:30;;;;;;;18.55;11.55;;;;;;;-146.82;100.00;71671.09;5053863;28;20029;-77
2024/01/01 07:14:57;;;;;;;17.15;11.07;;;;;;;-146.82;100.00;71671.09;5053674;28;20040;-76
2024/01/01 07:17:25;;;;;;;19.25;11.73;;;;;;;-146.82;100.00;71671.09;5052658;28;20079;-76
2024/01/01 07:19:52;;;;;;;19.75;10.88;;;;;;;-146.82;100.00;71671.09;5052702;28;20021;-76
2024/01/01 07:22:20;;;;;;;19.75;11.43;;;;;;;-146.82;100.00;71671.09;5052483;28;20049;-76
2024/01/01 07:24:46;;;;;;;21.35;11.35;;;;;;;-146.82;100.00;71671.09;5054519;28;20032;-77
2024/01/01 07:27:13;;;;;;;20.42;11.50;;;;;;;-146.82;100.00;71671.09;5053635;28;20041;-76
2024/01/01 07:29:43;;;;;;;22.52;12.73;;;;;;;-146.82;100.00;71671.09;5054139;28;20024;-76
2024/01/01 07:32:09;;;;;;;18.27;10.70;;;;;;;-146.82;100.00;71671.09;5052229;28;20037;-75
2024/01/01 07:34:35;;;;;;;18.27;10.10;;;;;;;-146.82;100.00;71671.09;5053311;28;20040;-76
2024/01/01 07:37:04;;;;;;;19.13;11.15;;;;;;;-146.82;100.00;71671.09;5053467;28;20489;-76
2024/01/01 07:39:30;;;;;;;21.83;11.30;;;;;;;-146.82;100.00;71671.09;5053585;28;20029;-77
2024/01/01 07:41:56;;;;;;;24.88;11.32;;;;;;;-146.82;100.00;71671.09;5051879;28;20394;-76
2024/01/01 07:44:22;;;;;;;21.67;11.35;;;;;;;-146.82;100.00;71671.09;5053378;28;20025;-76
2024/01/01 07:46:49;;;;;;;16.45;10.38;;;;;;;-146.82;100.00;71671.09;5052110;28;20428;-77
2024/01/01 07:49:16;;;;;;;18.23;10.82;;;;;;;-146.82;100.00;71671.09;5053329;28;20108;-76
2024/01/01 07:51:43;;;;;;;18.77;9.82;;;;;;;-146.82;100.00;71671.09;5053266;28;20036;-78
2024/01/01 07:54:10;;;;;;;14.60;9.88;;;;;;;-146.82;100.00;71671.09;5052111;28;20059;-77
2024/01/01 07:56:43;;;;;;;16.67;10.05;;;;;;;-146.82;100.00;71671.09;5051930;28;20027;-77
2024/01/01 07:59:08;;;;;;;19.02;10.07;;;;;;;-146.82;100.00;71671.09;5053459;28;20471;-77
2024/01/01 08:01:34;;;;;;;15.48;9.40;;;;;;;-146.82;100.00;71671.09;5053210;28;20099;-76
2024/01/01 08:04:00;;;;;;;17.77;10.23;;;;;;;-146.82;100.00;71671.09;5053430;28;20074;-78
2024/01/01 08:06:27;;;;;;;14.45;8.82;;;;;;;-146.82;100.00;71671.09;5053521;28;20033;-78
2024/01/01 08:08:53;;;;;;;18.60;9.45;;;;;;;-146.82;100.00;71671.09;5052044;28;20021;-76
2024/01/01 08:11:21;;;;;;;21.15;10.27;;;;;;;-146.82;100.00;71671.09;5053060;28;20052;-78
2024/01/01 08:13:48;;;;;;;18.70;10.43;;;;;;;-146.82;100.00;71671.09;5051606;28;20044;-76
2024/01/01 08:16:21;;;;;;;20.73;10.77;;;;;;;-146.82;100.00;71671.09;5052890;28;20075;-77
2024/01/01 08:18:48;;;;;;;21.25;11.07;;;;;;;-146.82;100.00;71671.09;5053251;28;20420;-78
2024/01/01 08:21:14;;;;;;;16.23;10.68;;;;;;;-146.82;100.00;71671.09;5053057;28;20167;-75
2024/01/01 08:23:43;;;;;;;18.17;11.43;;;;;;;-146.82;100.00;71671.09;5051993;28;20479;-76
2024/01/01 08:26:09;;;;;;;19.98;10.35;;;;;;;-146.82;100.00;71671.09;5051388;28;20064;-77
2024/01/01 08:28:36;;;;;;;20.23;10.30;;;;;;;-146.82;100.00;71671.09;5052734;28;20029;-77
2024/01/01 08:31:11;;;;;;;17.63;10.82;;;;;;;-146.82;100.00;71671.09;5053216;28;20100;-77
2024/01/01 08:33:37;;;;;;;21.90;11.48;;;;;;;-146.82;100.00;71671.09;5052882;28;20033;-77
2024/01/01 08:36:04;;;;;;;22.10;10.70;;;;;;;-146.82;100.00;71671.09;5052774;28;20090;-79
2024/01/01 08:38:29;;;;;;;21.48;11.10;;;;;;;-146.82;100.00;71671.09;5052640;28;20064;-76
2024/01/01 08:41:03;;;;;;;24.63;11.63;;;;;;;-146.82;100.00;71671.09;5052802;28;20029;-75
2024/01/01 08:43:30;;;;;;;18.08;11.25;;;;;;;-146.82;100.00;71671.09;5052590;28;20082;-75
2024/01/01 08:45:55;;;;;;;20.20;11.07;;;;;;;-146.82;100.00;71671.09;5049934;28;20119;-77
2024/01/01 08:48:22;;;;;;;21.25;10.93;;;;;;;-146.82;100.00;71671.09;5046690;28;20052;-78
2024/01/01 08:50:51;;;;;;;18.42;11.48;;;;;;;-146.82;100.00;71671.09;5050111;28;20389;-76
2024/01/01 08:53:17;;;;;;;19.98;11.57;;;;;;;-146.82;100.00;71671.09;5043677;28;20065;-76
2024/01/01 08:55:42;;;;;;;17.98;10.77;;;;;;;-146.82;100.00;71671.09;5050743;28;20052;-76
2024/01/01 08:58:09;;;;;;;18.92;12.13;;;;;;;-146.82;100.00;71671.09;5055058;28;20029;-77
2024/01/01 09:00:36;;;;;;;21.20;11.95;;;;;;;-146.82;100.00;71671.09;5054909;28;20037;-76
2024/01/01 09:03:03;;;;;;;21.55;12.30;;;;;;;-146.82;100.00;71671.09;5051065;28;20021;-77
2024/01/01 09:05:29;;;;;;;22.40;13.15;;;;;;;-146.82;100.00;71671.09;5041845;28;20017;-77
2024/01/01 09:07:56;;;;;;;23.98;12.77;;;;;;;-146.82;100.00;71671.09;5044301;28;20100;-77
2024/01/01 09:10:22;;;;;;;19.95;12.90;;;;;;;-146.82;100.00;71671.09;5046652;28;20033;-78
2024/01/01 09:12:49;;;;;;;21.75;13.02;;;;;;;-146.82;100.00;71671.09;5054333;28;20576;-79
2024/01/01 09:15:16;;;;;;;23.60;12.30;;;;;;;-146.82;100.00;71671.09;5037693;28;20398;-77
2024/01/01 09:17:44;;;;;;;25.67;12.48;;;;;;;-146.82;100.00;71671.09;5036603;28;20022;-79
2024/01/01 09:20:12;;;;;;;24.42;12.80;;;;;;;-146.82;100.00;71671.09;5035979;28;20036;-79
2024/01/01 09:22:38;;;;;;;25.75;14.55;;;;;;;-146.82;100.00;71671.09;5034695;28;20029;-78
2024/01/01 09:25:04;;;;;;;25.85;13.60;;;;;;;-146.82;100.00;71671.09;5035998;28;20045;-76
2024/01/01 09:27:29;;;;;;;21.25;12.90;;;;;;;-146.82;100.00;71671.09;5034250;28;20568;-78
2024/01/01 09:29:55;;;;;;;25.42;13.20;;;;;;;-146.82;100.00;71671.09;5034940;28;20038;-80
2024/01/01 09:32:22;;;;;;;22.02;13.48;;;;;;;-146.82;100.00;71671.09;5018095;28;20057;-82
2024/01/01 09:34:47;;;;;;;24.02;13.25;;;;;;;-146.82;100.00;71671.09;5046948;28;20029;-83
2024/01/01 09:37:13;;;;;;;26.95;14.77;;;;;;;-146.82;100.00;71671.09;5051694;28;20024;-82
2024/01/01 09:39:39;;;;;;;27.73;14.68;;;;;;;-146.82;100.00;71671.09;5046843;28;20031;-78
2024/01/01 09:42:05;;;;;;;24.80;14.68;;;;;;;-146.82;100.00;71671.09;5046265;28;20030;-78
2024/01/01 09:44:32;;;;;;;23.00;13.82;;;;;;;-146.82;100.00;71671.09;5043869;28;20021;-80
2024/01/01 09:46:59;;;;;;;24.30;13.90;;;;;;;-146.82;100.00;71671.09;5052623;28;20025;-80
2024/01/01 09:49:32;;;;;;;25.35;13.05;;;;;;;-146.82;100.00;71671.09;5054793;28;20083;-80
2024/01/01 09:52:04;;;;;;;22.08;13.25;;;;;;;-146.82;100.00;71671.09;5055226;28;20021;-82
2024/01/01 09:54:30;;;;;;;19.63;11.80;;;;;;;-146.82;100.00;71671.09;5037303;28;20029;-78
2024/01/01 09:56:56;;;;;;;23.75;12.93;;;;;;;-146.82;100.00;71671.09;5038184;28;20112;-75
2024/01/01 09:59:39;;;;;;;24.95;13.35;;;;;;;-146.82;100.00;71671.09;5035104;28;20104;-77
2024/01/01 10:02:07;;;;;;;20.35;12.25;;;;;;;-146.82;100.00;71671.09;5020096;28;20038;-77
2024/01/01 10:04:36;;;;;;;22.73;12.90;;;;;;;-146.82;100.00;71671.09;5034207;28;20083;-75
2024/01/01 10:07:05;;;;;;;20.30;12.65;;;;;;;-146.82;100.00;71671.09;5034433;28;20026;-77
2024/01/01 10:09:33;;;;;;;20.60;12.13;;;;;;;-146.82;100.00;71671.09;5047533;28;20037;-76
2024/01/01 10:12:09;;;;;;;23.92;13.43;;;;;;;-146.82;100.00;71671.09;5033990;28;20463;-77
2024/01/01 10:14:46;;;;;;;23.38;13.90;;;;;;;-146.82;100.00;71671.09;5006644;28;20072;-76
2024/01/01 10:17:14;;;;;;;21.25;12.65;;;;;;;-146.82;100.00;71671.09;5062150;28;20017;-76
2024/01/01 10:19:51;;;;;;;19.50;12.35;;;;;;;-146.82;100.00;71671.09;5068376;28;20085;-74
2024/01/01 10:22:18;;;;;;;21.55;12.90;;;;;;;-146.82;100.00;71671.09;5058372;28;20025;-77
2024/01/01 10:24:49;;;;;;;22.40;13.00;;;;;;;-146.82;100.00;71671.09;5059653;28;20361;-75
2024/01/01 10:27:18;;;;;;;21.90;12.13;;;;;;;-146.82;100.00;71671.09;5059598;28;20398;-76
2024/01/01 10:29:45;;;;;;;24.00;13.07;;;;;;;-146.82;100.00;71671.09;5054565;28;20029;-74
2024/01/01 10:32:18;;;;;;;22.45;13.95;;;;;;;-146.82;100.00;71671.09;5041442;28;20421;-76
2024/01/01 10:34:47;;;;;;;21.90;12.45;;;;;;;-146.82;100.00;71671.09;5035494;28;20036;-74
2024/01/01 10:37:19;;;;;;;25.77;13.98;;;;;;;-146.82;100.00;71671.09;5055321;28;20096;-75
2024/01/01 10:39:47;;;;;;;23.70;14.05;;;;;;;-146.82;100.00;71671.09;5054408;28;20032;-76
2024/01/01 10:42:13;;;;;;;22.90;13.07;;;;;;;-146.82;100.00;71671.09;5049465;28;20151;-77
2024/01/01 10:44:47;;;;;;;24.48;13.48;;;;;;;-146.82;100.00;71671.09;5047783;28;20819;-76
2024/01/01 10:47:14;;;;;;;21.88;12.63;;;;;;;-146.82;100.00;71671.09;5045976;28;20033;-77
2024/01/01 10:49:53;;;;;;;22.45;12.98;;;;;;;-146.82;100.00;71671.09;5049615;28;20037;-73
2024/01/01 10:52:37;;;;;;;21.85;13.68;;;;;;;-146.82;100.00;71671.09;5053525;28;20024;-76
2024/01/01 10:55:31;;;;;;;23.20;13.90;;;;;;;-146.82;100.00;71671.09;5049561;28;20025;-74
2024/01/01 10:58:16;;;;;;;22.58;13.75;;;;;;;-146.82;100.00;71671.09;5052966;28;20095;-73